Terminal Aerodrome Forecast
Issued by NWS Mt. Holly, NJ

Home | Current Version | Previous Version | Text Only | Print | Product List | Glossary On
Versions: 1 2 3 4 5 6 7 8 9 10 11 12 13 14 15 16 17 18 19 20 21 22 23 24
673
FTUS41 KPHI 140856 AAC
TAFRDG
TAF AMD
KRDG 140856Z 1409/1506 VRB03KT P6SM OVC015
      TEMPO 1409/1412 4SM -SN OVC008
     FM141200 VRB03KT P6SM OVC015
     FM141300 31005KT P6SM BKN025
     FM141500 32012KT P6SM SCT040
     FM150000 31007KT P6SM SCT200=

USA.gov is the U.S. government's official web portal to all federal, state and local government web resources and services.